createdAt,value
2023-01-17T00:00:38.783Z,0.80
2023-01-17T00:03:07.328Z,0.68
2023-01-17T00:05:53.278Z,0.73
2023-01-17T00:08:55.551Z,0.50
2023-01-17T00:11:22.794Z,0.70
2023-01-17T00:13:49.961Z,0.70
2023-01-17T00:16:17.227Z,0.75
2023-01-17T00:19:04.410Z,0.70
2023-01-17T00:21:50.065Z,0.93
2023-01-17T00:24:36.113Z,0.80
2023-01-17T00:27:12.449Z,0.60
2023-01-17T00:29:39.745Z,0.98
2023-01-17T00:32:06.935Z,1.05
2023-01-17T00:34:34.168Z,1.00
2023-01-17T00:37:01.436Z,0.80
2023-01-17T00:39:28.587Z,0.70
2023-01-17T00:41:55.768Z,0.93
2023-01-17T00:44:41.623Z,0.88
2023-01-17T00:47:27.416Z,0.68
2023-01-17T00:50:13.527Z,0.93
2023-01-17T00:52:59.318Z,0.60
2023-01-17T00:55:45.139Z,0.90
2023-01-17T00:58:30.857Z,0.73
2023-01-17T01:01:16.745Z,0.68
2023-01-17T01:04:02.608Z,0.45
2023-01-17T01:06:48.531Z,0.50
2023-01-17T01:09:34.468Z,0.30
2023-01-17T01:12:20.348Z,0.20
2023-01-17T01:15:06.367Z,0.50
2023-01-17T01:17:52.444Z,1.08
2023-01-17T01:20:38.363Z,0.20
2023-01-17T01:23:24.817Z,0.40
2023-01-17T01:26:10.565Z,0.40
2023-01-17T01:28:56.477Z,0.38
2023-01-17T01:31:42.302Z,0.22
2023-01-17T01:34:09.928Z,0.60
2023-01-17T01:36:37.147Z,0.40
2023-01-17T01:39:04.393Z,0.43
2023-01-17T01:41:31.657Z,0.20
2023-01-17T01:43:58.922Z,0.40
2023-01-17T01:46:32.341Z,0.30
2023-01-17T01:49:03.822Z,0.50
2023-01-17T01:51:35.876Z,0.20
2023-01-17T01:54:07.330Z,0.10
2023-01-17T01:56:34.843Z,0.50
2023-01-17T01:59:04.126Z,0.40
2023-01-17T02:01:35.881Z,0.20
2023-01-17T02:04:03.572Z,0.35
2023-01-17T02:06:33.179Z,0.45
2023-01-17T02:11:28.058Z,0.50
2023-01-17T02:13:55.312Z,0.30
2023-01-17T02:16:30.604Z,0.22
2023-01-17T02:19:12.907Z,0.22
2023-01-17T02:21:54.058Z,0.40
2023-01-17T02:24:24.339Z,0.32
2023-01-17T02:26:57.095Z,0.50
2023-01-17T02:29:51.981Z,0.40
2023-01-17T02:32:25.221Z,0.63
2023-01-17T02:34:56.620Z,0.50
2023-01-17T02:37:29.703Z,0.55
2023-01-17T02:40:00.611Z,0.75
2023-01-17T02:42:30.373Z,0.45
2023-01-17T02:44:57.664Z,0.40
2023-01-17T02:47:29.173Z,0.50
2023-01-17T02:49:59.146Z,0.75
2023-01-17T02:52:41.380Z,0.50
2023-01-17T02:55:15.469Z,0.50
2023-01-17T02:58:01.609Z,0.68
2023-01-17T03:00:44.879Z,1.02
2023-01-17T03:03:19.875Z,0.50
2023-01-17T03:05:50.091Z,0.60
2023-01-17T03:08:17.920Z,0.80
2023-01-17T03:10:45.194Z,0.57
2023-01-17T03:13:12.469Z,0.50
2023-01-17T03:15:40.096Z,0.25
2023-01-17T03:18:10.385Z,0.55
2023-01-17T03:20:37.666Z,0.65
2023-01-17T03:23:04.864Z,0.70
2023-01-17T03:25:32.271Z,0.73
2023-01-17T03:27:59.552Z,0.50
2023-01-17T03:30:26.848Z,0.45
2023-01-17T03:32:54.048Z,0.75
2023-01-17T03:35:21.293Z,0.40
2023-01-17T03:37:48.553Z,0.50
2023-01-17T03:40:15.797Z,0.40
2023-01-17T03:42:43.132Z,0.55
2023-01-17T03:45:10.638Z,0.60
2023-01-17T03:47:37.848Z,0.38
2023-01-17T03:50:05.626Z,0.70
2023-01-17T03:52:32.832Z,0.35
2023-01-17T03:55:00.028Z,0.40
2023-01-17T03:59:56.693Z,0.52
2023-01-17T04:02:24.555Z,0.50
2023-01-17T04:04:51.980Z,0.22
2023-01-17T04:07:19.208Z,0.60
2023-01-17T04:09:46.488Z,0.52
2023-01-17T04:12:13.784Z,0.60
2023-01-17T04:14:41.166Z,0.43
2023-01-17T04:17:11.304Z,0.70
2023-01-17T04:19:38.659Z,0.32
2023-01-17T04:22:05.972Z,0.88
2023-01-17T04:24:33.210Z,0.52
2023-01-17T04:27:00.565Z,0.50
2023-01-17T04:29:27.765Z,0.90
2023-01-17T04:31:55.089Z,0.40
2023-01-17T04:34:22.357Z,0.43
2023-01-17T04:36:49.753Z,0.52
2023-01-17T04:39:17.149Z,0.52
2023-01-17T04:41:44.380Z,0.60
2023-01-17T04:44:11.661Z,0.70
2023-01-17T04:46:38.928Z,0.80
2023-01-17T04:49:06.169Z,0.65
2023-01-17T04:51:33.489Z,0.60
2023-01-17T04:54:00.728Z,0.80
2023-01-17T04:56:27.908Z,0.65
2023-01-17T04:58:58.259Z,0.68
2023-01-17T05:01:25.816Z,0.60
2023-01-17T05:03:53.152Z,0.60
2023-01-17T05:06:20.415Z,0.70
2023-01-17T05:08:47.629Z,0.95
2023-01-17T05:11:14.849Z,0.73
2023-01-17T05:13:42.048Z,0.80
2023-01-17T05:16:09.453Z,0.80
2023-01-17T05:18:37.642Z,0.88
2023-01-17T05:21:05.000Z,0.60
2023-01-17T05:23:33.031Z,0.50
2023-01-17T05:26:00.356Z,0.60
2023-01-17T05:28:27.650Z,0.40
2023-01-17T05:30:54.905Z,0.50
2023-01-17T05:33:22.255Z,0.68
2023-01-17T05:35:49.601Z,0.43
2023-01-17T05:38:17.013Z,0.40
2023-01-17T05:40:44.361Z,0.45
2023-01-17T05:43:11.605Z,0.45
2023-01-17T05:45:39.039Z,0.50
2023-01-17T05:48:06.687Z,0.47
2023-01-17T05:50:35.340Z,0.68
2023-01-17T05:53:10.622Z,0.68
2023-01-17T05:55:38.174Z,0.52
2023-01-17T05:58:05.768Z,1.02
2023-01-17T06:00:33.126Z,0.95
2023-01-17T06:03:01.277Z,0.88
2023-01-17T06:05:29.177Z,0.75
2023-01-17T06:07:56.603Z,1.05
2023-01-17T06:10:23.932Z,0.95
2023-01-17T06:12:51.538Z,0.95
2023-01-17T06:15:19.186Z,0.80
2023-01-17T06:17:46.380Z,1.00
2023-01-17T06:20:13.873Z,0.80
2023-01-17T06:22:41.104Z,1.20
2023-01-17T06:25:08.560Z,1.45
2023-01-17T06:27:35.817Z,0.70
2023-01-17T06:30:03.474Z,0.93
2023-01-17T06:32:30.768Z,0.90
2023-01-17T06:34:58.005Z,1.00
2023-01-17T06:37:25.721Z,1.05
2023-01-17T06:39:52.988Z,0.98
2023-01-17T06:42:20.195Z,3.03
2023-01-17T06:44:47.413Z,3.22
2023-01-17T06:47:14.676Z,2.25
2023-01-17T06:49:41.916Z,15.60
2023-01-17T06:52:09.286Z,5.00
2023-01-17T06:54:36.532Z,4.85
2023-01-17T06:57:03.784Z,4.82
2023-01-17T06:59:31.042Z,3.83
2023-01-17T07:01:58.308Z,3.60
2023-01-17T07:04:25.606Z,2.88
2023-01-17T07:06:52.820Z,3.40
2023-01-17T07:09:20.060Z,2.30
2023-01-17T07:11:47.463Z,7.30
2023-01-17T07:14:15.380Z,7.60
2023-01-17T07:16:45.962Z,6.50
2023-01-17T07:19:13.529Z,4.60
2023-01-17T07:21:40.896Z,3.90
2023-01-17T07:24:09.254Z,3.30
2023-01-17T07:26:38.001Z,2.72
2023-01-17T07:29:05.902Z,2.80
2023-01-17T07:31:38.366Z,2.35
2023-01-17T07:34:05.771Z,2.22
2023-01-17T07:36:33.354Z,2.00
2023-01-17T07:39:00.626Z,2.25
2023-01-17T07:41:27.912Z,2.20
2023-01-17T07:43:56.505Z,2.22
2023-01-17T07:46:23.819Z,2.40
2023-01-17T07:48:51.063Z,2.17
2023-01-17T07:51:18.320Z,1.80
2023-01-17T07:53:45.600Z,1.90
2023-01-17T07:56:12.841Z,2.13
2023-01-17T07:58:40.041Z,2.00
2023-01-17T08:01:11.591Z,2.75
2023-01-17T08:03:42.406Z,1.80
2023-01-17T08:06:23.603Z,1.88
2023-01-17T08:08:50.869Z,1.70
2023-01-17T08:11:18.211Z,2.13
2023-01-17T08:13:45.457Z,1.50
2023-01-17T08:16:13.441Z,1.55
2023-01-17T08:18:40.836Z,1.50
2023-01-17T08:21:15.341Z,1.33
2023-01-17T08:23:42.591Z,1.40
2023-01-17T08:26:10.117Z,1.42
2023-01-17T08:28:37.400Z,1.45
2023-01-17T08:31:09.050Z,1.48
2023-01-17T08:33:36.430Z,1.38
2023-01-17T08:36:03.745Z,1.60
2023-01-17T08:38:31.038Z,1.95
2023-01-17T08:41:01.609Z,1.50
2023-01-17T08:43:28.925Z,1.38
2023-01-17T08:45:56.318Z,1.27
2023-01-17T08:48:24.290Z,1.30
2023-01-17T08:50:51.581Z,1.58
2023-01-17T08:53:21.570Z,1.30
2023-01-17T08:55:48.870Z,1.00
2023-01-17T08:58:16.133Z,1.35
2023-01-17T09:00:43.449Z,1.45
2023-01-17T09:03:14.538Z,1.30
2023-01-17T09:05:41.969Z,1.15
2023-01-17T09:08:09.561Z,1.10
2023-01-17T09:10:36.802Z,1.38
2023-01-17T09:13:06.688Z,1.52
2023-01-17T09:15:33.972Z,1.30
2023-01-17T09:18:01.641Z,1.10
2023-01-17T09:20:30.820Z,1.25
2023-01-17T09:22:58.157Z,1.20
2023-01-17T09:25:25.460Z,1.20
2023-01-17T09:27:52.725Z,1.67
2023-01-17T09:30:20.032Z,1.20
2023-01-17T09:32:53.195Z,1.42
2023-01-17T09:35:20.500Z,1.45
2023-01-17T09:37:51.240Z,1.20
2023-01-17T09:40:25.258Z,1.63
2023-01-17T09:42:54.037Z,1.30
2023-01-17T09:45:21.536Z,1.60
2023-01-17T09:47:53.177Z,1.45
2023-01-17T09:50:23.428Z,1.40
2023-01-17T09:52:50.738Z,1.40
2023-01-17T09:55:18.306Z,1.40
2023-01-17T09:57:57.753Z,1.60
2023-01-17T10:00:28.082Z,1.60
2023-01-17T10:03:02.859Z,1.40
2023-01-17T10:05:44.899Z,1.38
2023-01-17T10:08:24.504Z,1.45
2023-01-17T10:10:51.798Z,1.60
2023-01-17T10:13:30.903Z,1.58
2023-01-17T10:16:01.363Z,1.60
2023-01-17T10:18:56.488Z,1.45
2023-01-17T10:21:32.992Z,1.80
2023-01-17T10:24:16.416Z,1.70
2023-01-17T10:26:50.161Z,1.60
2023-01-17T10:29:20.251Z,1.60
2023-01-17T10:31:55.274Z,1.60
2023-01-17T10:34:23.665Z,1.70
2023-01-17T10:36:53.758Z,1.52
2023-01-17T10:39:22.486Z,2.05
2023-01-17T10:41:55.337Z,1.70
2023-01-17T10:44:29.815Z,1.95
2023-01-17T10:46:59.306Z,1.63
2023-01-17T10:49:28.413Z,1.52
2023-01-17T10:52:13.206Z,1.73
2023-01-17T10:54:40.408Z,1.88
2023-01-17T10:57:19.297Z,1.92
2023-01-17T10:59:46.567Z,1.70
2023-01-17T11:02:19.639Z,2.28
2023-01-17T11:04:49.032Z,2.47
2023-01-17T11:07:20.944Z,2.20
2023-01-17T11:09:52.768Z,2.53
2023-01-17T11:12:38.361Z,2.25
2023-01-17T11:15:11.912Z,2.30
2023-01-17T11:17:42.264Z,2.58
2023-01-17T11:20:20.006Z,2.47
2023-01-17T11:23:02.249Z,2.42
2023-01-17T11:25:30.728Z,2.78
2023-01-17T11:27:58.969Z,2.67
2023-01-17T11:30:29.426Z,2.53
2023-01-17T11:33:06.226Z,2.78
2023-01-17T11:35:38.136Z,3.17
2023-01-17T11:38:07.073Z,3.10
2023-01-17T11:40:37.461Z,2.75
2023-01-17T11:43:15.400Z,3.42
2023-01-17T11:45:42.836Z,2.97
2023-01-17T11:48:11.555Z,3.30
2023-01-17T11:50:54.790Z,3.20
2023-01-17T11:53:22.004Z,3.15
2023-01-17T11:55:56.615Z,2.95
2023-01-17T11:58:24.185Z,3.15
2023-01-17T12:01:10.303Z,3.58
2023-01-17T12:03:40.513Z,3.20
2023-01-17T12:06:17.915Z,3.22
2023-01-17T12:08:54.467Z,3.33
2023-01-17T12:12:12.567Z,3.35
2023-01-17T12:14:46.082Z,3.00
2023-01-17T12:17:19.453Z,3.03
2023-01-17T12:20:18.863Z,2.90
2023-01-17T12:23:05.583Z,2.70
2023-01-17T12:25:41.922Z,2.53
2023-01-17T12:28:19.791Z,2.40
2023-01-17T12:31:01.070Z,2.10
2023-01-17T12:33:45.724Z,2.47
2023-01-17T12:36:33.268Z,2.45
2023-01-17T12:39:03.674Z,2.30
2023-01-17T12:41:39.558Z,2.47
2023-01-17T12:44:06.829Z,2.33
2023-01-17T12:46:34.079Z,2.30
2023-01-17T12:49:14.584Z,2.25
2023-01-17T12:51:43.913Z,2.30
2023-01-17T12:54:20.277Z,2.28
2023-01-17T12:56:55.701Z,1.88
2023-01-17T12:59:26.713Z,1.90
2023-01-17T13:01:58.991Z,1.90
2023-01-17T13:04:57.471Z,2.15
2023-01-17T13:07:29.261Z,1.80
2023-01-17T13:10:01.388Z,1.90
2023-01-17T13:12:30.005Z,2.00
2023-01-17T13:14:57.999Z,1.63
2023-01-17T13:17:35.364Z,1.85
2023-01-17T13:20:08.745Z,1.80
2023-01-17T13:22:37.760Z,1.50
2023-01-17T13:25:07.765Z,1.70
2023-01-17T13:27:37.768Z,1.73
2023-01-17T13:30:16.892Z,1.83
2023-01-17T13:33:01.621Z,1.38
2023-01-17T13:35:37.137Z,1.40
2023-01-17T13:38:33.854Z,1.30
2023-01-17T13:41:03.923Z,1.35
2023-01-17T13:43:34.831Z,1.23
2023-01-17T13:46:03.382Z,1.00
2023-01-17T13:48:34.661Z,0.70
2023-01-17T13:51:08.953Z,0.80
2023-01-17T13:53:38.999Z,0.80
2023-01-17T13:56:26.538Z,1.38
2023-01-17T13:59:02.546Z,1.42
2023-01-17T14:01:34.704Z,0.90
2023-01-17T14:04:02.140Z,1.10
2023-01-17T14:06:46.346Z,0.80
2023-01-17T14:09:13.611Z,1.10
2023-01-17T14:11:51.587Z,1.05
2023-01-17T14:14:37.518Z,0.70
2023-01-17T14:17:17.020Z,0.82
2023-01-17T14:19:48.206Z,1.02
2023-01-17T14:22:21.361Z,1.20
2023-01-17T14:25:09.681Z,1.20
2023-01-17T14:27:43.001Z,1.00
2023-01-17T14:30:22.312Z,1.00
2023-01-17T14:33:26.452Z,1.10
2023-01-17T14:35:56.221Z,1.17
2023-01-17T14:38:24.480Z,1.10
2023-01-17T14:41:12.021Z,1.00
2023-01-17T14:43:41.707Z,1.40
2023-01-17T14:48:39.984Z,1.20
2023-01-17T14:51:13.061Z,1.33
2023-01-17T14:53:40.404Z,1.10
2023-01-17T14:56:18.237Z,1.33
2023-01-17T14:58:48.505Z,1.10
2023-01-17T15:01:20.024Z,1.20
2023-01-17T15:03:49.713Z,1.70
2023-01-17T15:06:35.553Z,1.40
2023-01-17T15:09:09.293Z,1.10
2023-01-17T15:11:36.901Z,1.30
2023-01-17T15:14:05.894Z,1.25
2023-01-17T15:16:35.231Z,1.45
2023-01-17T15:19:03.423Z,1.30
2023-01-17T15:21:31.961Z,1.30
2023-01-17T15:24:00.716Z,1.67
2023-01-17T15:26:29.088Z,1.45
2023-01-17T15:29:02.686Z,1.25
2023-01-17T15:31:39.437Z,1.52
2023-01-17T15:34:07.877Z,1.33
2023-01-17T15:36:35.526Z,1.30
2023-01-17T15:39:05.124Z,1.40
2023-01-17T15:43:59.715Z,1.40
2023-01-17T15:46:31.780Z,1.55
2023-01-17T15:49:17.945Z,2.25
2023-01-17T15:51:50.007Z,2.50
2023-01-17T15:54:29.121Z,2.30
2023-01-17T15:57:25.864Z,1.83
2023-01-17T15:59:55.079Z,1.77
2023-01-17T16:02:38.554Z,1.80
2023-01-17T16:05:33.465Z,2.20
2023-01-17T16:08:04.415Z,1.80
2023-01-17T16:10:37.059Z,2.00
2023-01-17T16:13:05.223Z,1.67
2023-01-17T16:15:32.725Z,1.60
2023-01-17T16:18:06.497Z,1.83
2023-01-17T16:20:35.150Z,1.70
2023-01-17T16:23:02.664Z,1.70
2023-01-17T16:25:32.493Z,1.33
2023-01-17T16:28:01.464Z,1.85
2023-01-17T16:30:29.189Z,1.25
2023-01-17T16:32:59.601Z,1.38
2023-01-17T16:35:31.256Z,1.40
2023-01-17T16:37:59.635Z,1.50
2023-01-17T16:40:28.118Z,1.30
2023-01-17T16:42:59.048Z,1.48
2023-01-17T16:45:26.812Z,1.60
2023-01-17T16:47:55.327Z,2.42
2023-01-17T16:50:23.735Z,1.80
2023-01-17T16:52:51.623Z,1.67
2023-01-17T16:55:21.941Z,1.80
2023-01-17T16:57:50.089Z,1.70
2023-01-17T17:00:17.698Z,1.67
2023-01-17T17:02:45.023Z,1.92
2023-01-17T17:05:12.345Z,1.95
2023-01-17T17:07:45.443Z,2.03
2023-01-17T17:10:14.447Z,1.85
2023-01-17T17:12:41.811Z,1.80
2023-01-17T17:15:09.729Z,1.67
2023-01-17T17:17:37.717Z,1.65
2023-01-17T17:20:05.421Z,1.95
2023-01-17T17:22:32.937Z,2.08
2023-01-17T17:25:00.197Z,1.90
2023-01-17T17:27:27.918Z,2.05
2023-01-17T17:29:55.199Z,2.42
2023-01-17T17:32:22.837Z,2.20
2023-01-17T17:34:53.103Z,2.15
2023-01-17T17:37:22.427Z,2.38
2023-01-17T17:39:49.890Z,2.00
2023-01-17T17:42:17.271Z,2.00
2023-01-17T17:44:44.465Z,2.00
2023-01-17T17:47:12.910Z,1.95
2023-01-17T17:49:40.441Z,1.70
2023-01-17T17:52:08.268Z,1.67
2023-01-17T17:54:35.923Z,2.08
2023-01-17T17:57:03.199Z,2.05
2023-01-17T17:59:31.181Z,1.80
2023-01-17T18:01:59.786Z,2.00
2023-01-17T18:04:27.656Z,1.80
2023-01-17T18:06:58.523Z,1.77
2023-01-17T18:09:25.973Z,2.08
2023-01-17T18:11:53.241Z,2.20
2023-01-17T18:14:23.858Z,2.40
2023-01-17T18:16:51.469Z,2.40
2023-01-17T18:19:23.384Z,1.90
2023-01-17T18:21:51.360Z,2.20
2023-01-17T18:24:19.971Z,1.98
2023-01-17T18:26:48.315Z,2.15
2023-01-17T18:29:16.516Z,1.90
2023-01-17T18:31:44.526Z,2.25
2023-01-17T18:34:13.272Z,3.08
2023-01-17T18:36:40.642Z,2.42
2023-01-17T18:39:12.375Z,2.35
2023-01-17T18:41:39.745Z,2.53
2023-01-17T18:44:07.452Z,2.42
2023-01-17T18:46:35.272Z,2.60
2023-01-17T18:49:02.856Z,3.00
2023-01-17T18:51:31.935Z,3.05
2023-01-17T18:54:02.831Z,2.83
2023-01-17T18:56:31.187Z,3.35
2023-01-17T18:58:58.809Z,3.20
2023-01-17T19:01:27.231Z,2.78
2023-01-17T19:03:57.773Z,3.13
2023-01-17T19:06:27.499Z,2.88
2023-01-17T19:08:55.157Z,3.05
2023-01-17T19:11:23.360Z,2.90
2023-01-17T19:13:50.898Z,3.08
2023-01-17T19:16:24.514Z,2.97
2023-01-17T19:18:52.656Z,2.70
2023-01-17T19:21:21.134Z,3.03
2023-01-17T19:23:48.901Z,3.20
2023-01-17T19:26:17.159Z,2.83
2023-01-17T19:28:45.714Z,3.05
2023-01-17T19:31:14.461Z,2.90
2023-01-17T19:33:43.646Z,4.78
2023-01-17T19:36:13.438Z,4.50
2023-01-17T19:38:42.839Z,3.92
2023-01-17T19:41:14.968Z,5.38
2023-01-17T19:46:10.094Z,3.40
2023-01-17T19:48:37.639Z,3.63
2023-01-17T19:51:06.261Z,3.85
2023-01-17T19:53:35.297Z,3.67
2023-01-17T19:56:06.283Z,3.80
2023-01-17T19:58:33.628Z,3.72
2023-01-17T20:01:14.774Z,3.60
2023-01-17T20:03:44.175Z,3.83
2023-01-17T20:06:12.196Z,3.33
2023-01-17T20:08:40.080Z,3.50
2023-01-17T20:11:19.108Z,3.85
2023-01-17T20:13:46.719Z,3.72
2023-01-17T20:16:15.385Z,3.70
2023-01-17T20:18:42.872Z,3.83
2023-01-17T20:21:12.288Z,3.65
2023-01-17T20:23:42.261Z,3.50
2023-01-17T20:26:09.998Z,3.58
2023-01-17T20:28:38.451Z,4.05
2023-01-17T20:31:12.734Z,3.33
2023-01-17T20:33:40.809Z,3.70
2023-01-17T20:36:11.051Z,4.25
2023-01-17T20:38:45.501Z,3.55
2023-01-17T20:41:14.466Z,3.42
2023-01-17T20:43:42.382Z,4.13
2023-01-17T20:46:10.106Z,3.70
2023-01-17T20:48:39.132Z,4.32
2023-01-17T20:51:07.317Z,4.35
2023-01-17T20:53:35.239Z,4.50
2023-01-17T20:56:02.548Z,4.32
2023-01-17T20:58:34.106Z,4.20
2023-01-17T21:01:01.524Z,4.13
2023-01-17T21:03:29.429Z,4.70
2023-01-17T21:06:04.212Z,4.65
2023-01-17T21:08:39.259Z,4.00
2023-01-17T21:11:06.978Z,4.60
2023-01-17T21:13:34.313Z,4.32
2023-01-17T21:16:02.314Z,4.30
2023-01-17T21:18:33.692Z,4.30
2023-01-17T21:21:08.648Z,4.32
2023-01-17T21:23:36.713Z,3.92
2023-01-17T21:26:04.418Z,4.03
2023-01-17T21:28:33.352Z,4.22
2023-01-17T21:31:00.696Z,4.57
2023-01-17T21:33:29.367Z,4.10
2023-01-17T21:36:07.700Z,4.30
2023-01-17T21:38:34.985Z,4.20
2023-01-17T21:41:02.365Z,4.45
2023-01-17T21:43:29.594Z,4.45
2023-01-17T21:45:56.841Z,4.13
2023-01-17T21:48:24.215Z,4.28
2023-01-17T21:50:52.547Z,4.15
2023-01-17T21:53:19.885Z,4.30
2023-01-17T21:56:05.690Z,4.20
2023-01-17T21:58:44.885Z,4.57
2023-01-17T22:01:21.601Z,4.30
2023-01-17T22:03:53.321Z,4.28
2023-01-17T22:06:21.637Z,4.32
2023-01-17T22:08:48.880Z,3.85
2023-01-17T22:11:17.279Z,4.47
2023-01-17T22:13:45.346Z,4.55
2023-01-17T22:16:14.238Z,4.07
2023-01-17T22:18:42.397Z,4.32
2023-01-17T22:21:13.897Z,3.70
2023-01-17T22:23:45.360Z,4.20
2023-01-17T22:26:12.625Z,4.40
2023-01-17T22:28:40.319Z,5.10
2023-01-17T22:31:10.931Z,4.80
2023-01-17T22:33:38.591Z,4.43
2023-01-17T22:36:06.088Z,4.38
2023-01-17T22:38:33.643Z,4.53
2023-01-17T22:41:07.832Z,5.18
2023-01-17T22:43:37.270Z,4.28
2023-01-17T22:46:05.620Z,4.53
2023-01-17T22:48:33.919Z,4.90
2023-01-17T22:51:02.458Z,4.38
2023-01-17T22:53:30.064Z,4.13
2023-01-17T22:56:05.044Z,3.88
2023-01-17T22:58:32.731Z,3.95
2023-01-17T23:01:11.415Z,3.83
2023-01-17T23:03:40.741Z,4.07
2023-01-17T23:06:12.137Z,4.20
2023-01-17T23:08:40.389Z,3.72
2023-01-17T23:11:38.782Z,3.53
2023-01-17T23:14:06.861Z,3.83
2023-01-17T23:16:52.933Z,3.83
2023-01-17T23:19:23.180Z,3.92
2023-01-17T23:22:10.051Z,3.70
2023-01-17T23:24:43.213Z,4.07
2023-01-17T23:27:30.021Z,4.20
2023-01-17T23:29:57.338Z,3.67
2023-01-17T23:32:24.897Z,3.55
2023-01-17T23:34:52.324Z,3.83
2023-01-17T23:37:19.551Z,3.67
2023-01-17T23:39:46.819Z,3.92
2023-01-17T23:42:32.722Z,3.63
2023-01-17T23:45:00.123Z,3.80
2023-01-17T23:47:27.428Z,3.95
2023-01-17T23:49:54.677Z,3.60
2023-01-17T23:52:21.902Z,3.70
2023-01-17T23:54:49.209Z,3.65
2023-01-17T23:57:16.448Z,3.60
2023-01-17T23:59:44.799Z,3.38
